• Join FlightAware (Why Join?)
  • Login
  • US Flag 
09:11PM EDT


 

Airport Tracker/Info


-or-


 

Live Flight TrackerFlight Track Log ✈ N8088H ✈ 15-Feb-2014 ✈ KPNS - KTPF

Flight Track Log - Related Links

Times and Time Zones

All times are in EST time to prevent confusion due to time zone crossing. See the N8088H flight status page for this flight to view local times or setup timezone preferences in your user account.

Time Position Orientation Groundspeed Altitude Reporting Facility
EST Latitude Longitude Course Direction KTS MPH feet Rate Location/Type
04:21PM 30.5053 -87.1814 24° Northeast 100 115 900  Level Jacksonville Center
04:22PM 30.5247 -87.1631 39° Northeast 102 117 1,600 600 Climbing Jacksonville Center
04:24PM 30.5258 -87.1294 88° East 103 119 2,200 600 Climbing Jacksonville Center
04:25PM 30.5125 -87.0925 113° Southeast 109 125 3,000 540 Climbing Jacksonville Center
04:26PM 30.4925 -87.0628 128° Southeast 117 135 3,500 120 Climbing Jacksonville Center
05:00PM 29.7128 -85.6450 122° Southeast 166 191 9,000 120 Climbing Jacksonville Center
05:01PM 29.6686 -85.5742 122° Southeast  Level FlightAware Approximate
05:01PM 29.6908 -85.6011 120° Southeast 166 191 9,000  Level Jacksonville Center
05:02PM 29.6451 -85.5314 122° Southeast  Level FlightAware Approximate
05:02PM 29.6647 -85.5550 123° Southeast 166 191 9,000  Level Jacksonville Center
05:03PM 29.6215 -85.4887 122° Southeast  Level FlightAware Approximate
05:03PM 29.6425 -85.5092 119° Southeast 166 191 9,000  Level Jacksonville Center
05:04PM 29.5979 -85.4460 122° Southeast  Level FlightAware Approximate
05:04PM 29.6183 -85.4703 126° Southeast 184 212 9,000  Level Jacksonville Center
05:05PM 29.5942 -85.4267 123° Southeast 184 212 9,000  Level Jacksonville Center
05:06PM 29.5681 -85.3806 123° Southeast 174 200 9,000  Level Jacksonville Center
05:07PM 29.5458 -85.3347 119° Southeast 169 194 9,000  Level Jacksonville Center
05:08PM 29.5217 -85.2911 122° Southeast 169 194 9,000  Level Jacksonville Center
05:09PM 29.4975 -85.2475 122° Southeast 169 194 9,000  Level Jacksonville Center
05:10PM 29.4731 -85.2042 123° Southeast 169 194 9,000  Level Jacksonville Center
05:11PM 29.4469 -85.1581 123° Southeast 169 194 9,000  Level Jacksonville Center
05:12PM 29.4225 -85.1147 123° Southeast 169 194 9,000  Level Jacksonville Center
05:13PM 29.3983 -85.0711 122° Southeast 169 194 9,000  Level Jacksonville Center
05:14PM 29.3742 -85.0231 120° Southeast 174 200 9,000  Level Jacksonville Center
05:15PM 29.3497 -84.9794 123° Southeast 174 200 9,000  Level Jacksonville Center
05:16PM 29.3253 -84.9339 122° Southeast 174 200 9,000  Level Jacksonville Center
05:17PM 29.3011 -84.8906 123° Southeast 174 200 9,000  Level Jacksonville Center
05:18PM 29.2767 -84.8447 121° Southeast 174 200 9,000  Level Jacksonville Center
05:19PM 29.2503 -84.8014 125° Southeast 174 200 9,000  Level Jacksonville Center
05:20PM 29.2258 -84.7581 123° Southeast 174 200 9,000 -60 Level Jacksonville Center
05:21PM 29.2036 -84.7125 119° Southeast 174 200 8,900 -60 Descending Jacksonville Center
05:22PM 29.1769 -84.6692 125° Southeast 168 193 8,900  Level Jacksonville Center
05:23PM 29.1544 -84.6283 122° Southeast 168 193 8,900  Level Jacksonville Center
05:24PM 29.1300 -84.5850 123° Southeast 168 193 8,900  Level Jacksonville Center
05:25PM 29.1056 -84.5419 123° Southeast 168 193 8,900  Level Jacksonville Center
05:26PM 29.0811 -84.4986 123° Southeast 168 193 8,900  Level Jacksonville Center
05:27PM 29.0586 -84.4533 120° Southeast 168 193 8,900  Level Jacksonville Center
05:28PM 29.0342 -84.4100 123° Southeast 168 193 8,900  Level Jacksonville Center
05:29PM 29.0075 -84.3669 125° Southeast 168 193 8,900  Level Jacksonville Center
05:30PM 28.9850 -84.3217 120° Southeast 168 193 8,900  Level Jacksonville Center
05:31PM 28.9606 -84.2783 123° Southeast 168 193 8,900  Level Jacksonville Center
05:32PM 28.9381 -84.2378 122° Southeast 168 193 8,900  Level Jacksonville Center
05:33PM 28.9114 -84.1922 124° Southeast 168 193 8,900  Level Jacksonville Center
05:34PM 28.8867 -84.1494 123° Southeast 168 193 8,900  Level Jacksonville Center
05:35PM 28.8581 -84.1017 124° Southeast 168 193 8,900  Level Jacksonville Center
05:36PM 28.8353 -84.0586 121° Southeast 168 193 8,900  Level Jacksonville Center
05:37PM 28.8108 -84.0133 122° Southeast 168 193 8,900  Level Jacksonville Center
05:38PM 28.7861 -83.9706 123° Southeast 168 193 8,900  Level Jacksonville Center
05:39PM 28.7636 -83.9275 121° Southeast 168 193 8,900  Level Jacksonville Center
05:40PM 28.7367 -83.8822 124° Southeast 168 193 8,900  Level Jacksonville Center
05:41PM 28.7142 -83.8394 121° Southeast 168 193 8,900  Level Jacksonville Center
05:42PM 28.6872 -83.7942 124° Southeast 168 193 8,900  Level Jacksonville Center
05:43PM 28.6625 -83.7492 122° Southeast 168 193 8,900  Level Jacksonville Center
05:44PM 28.6378 -83.7064 123° Southeast 168 193 8,900  Level Jacksonville Center
05:45PM 28.6150 -83.6636 121° Southeast 163 188 8,900  Level Jacksonville Center
05:46PM 28.5903 -83.6208 123° Southeast 163 188 8,900  Level Jacksonville Center
05:47PM 28.5633 -83.5756 124° Southeast 168 193 8,900  Level Jacksonville Center
05:48PM 28.5406 -83.5331 121° Southeast 168 193 8,900  Level Jacksonville Center
05:49PM 28.5158 -83.4903 123° Southeast 168 193 8,900 -120 Level Jacksonville Center
05:50PM 28.4889 -83.4478 126° Southeast 161 185 8,700 -540 Descending Jacksonville Center
05:52PM 28.4167 -83.3333 126° Southeast 183 211 7,300 -540 Descending Tampa TRACON
05:53PM 28.4000 -83.2833 111° Southeast 176 203 7,000 -180 Descending Tampa TRACON
05:54PM 28.3667 -83.2500 139° Southeast 154 177 7,000  Level Tampa TRACON
05:55PM 28.3500 -83.2000 111° Southeast 153 176 7,000  Level Tampa TRACON
05:56PM 28.3333 -83.1500 111° Southeast 151 174 7,000  Level Tampa TRACON
05:57PM 28.3000 -83.1167 139° Southeast 152 175 7,000  Level Tampa TRACON
05:58PM 28.2833 -83.0833 120° Southeast 153 176 7,000 -240 Level Tampa TRACON
05:59PM 28.2500 -83.0333 127° Southeast 160 184 6,600 -420 Descending Tampa TRACON
06:00PM 28.2333 -83.0000 120° Southeast 173 199 6,200 -480 Descending Tampa TRACON
06:01PM 28.2000 -82.9500 127° Southeast 176 203 5,700 -600 Descending Tampa TRACON
06:02PM 28.1833 -82.9000 111° Southeast 173 199 5,000 -660 Descending Tampa TRACON
06:03PM 28.1500 -82.8500 127° Southeast 169 194 4,400 -600 Descending Tampa TRACON
06:04PM 28.1167 -82.8167 139° Southeast 167 192 3,800 -540 Descending Tampa TRACON
06:05PM 28.0833 -82.7833 139° Southeast 161 185 3,300 -420 Descending Tampa TRACON
06:06PM 28.0500 -82.7667 156° South 157 181 3,000 -180 Descending Tampa TRACON
06:07PM 28.0167 -82.7333 139° Southeast 141 162 3,000  Level Tampa TRACON
06:08PM 28.0000 -82.7000 120° Southeast 139 160 3,000 -60 Level Tampa TRACON
06:09PM 27.9833 -82.6500 111° Southeast 135 155 2,900 -60 Descending Tampa TRACON
06:10PM 27.9667 -82.6167 120° Southeast 127 146 2,900  Level Tampa TRACON
06:11PM 27.9667 -82.5833 90° East 117 135 3,000  Climbing Tampa TRACON
06:12PM 27.9667 -82.5500 90° East 116 133 3,000 -360 Level Tampa TRACON
06:13PM 27.9667 -82.5000 90° East 126 145 2,400 -600 Descending Tampa TRACON